Time;durP1;ratioP1;P1;durP2;ratioP2;P2;SDS_P1;SDS_P2;PMS_P1;PMS_P2;Temp;Humidity;BMP_temperature;BMP_pressure;BME280_temperature;BME280_humidity;BME280_pressure;Samples;Min_cycle;Max_cycle;Signal;HPM_P1;HPM_P2
2021/04/14 00:00:34;;;;;;;7.13;2.80;;;;;;;3.25;66.23;101805.59;5078575;28;20719;-84
2021/04/14 00:03:02;;;;;;;5.15;2.80;;;;;;;3.24;66.26;101803.84;5067592;28;20047;-84
2021/04/14 00:05:36;;;;;;;7.63;2.63;;;;;;;3.18;66.64;101795.94;5065039;28;20094;-84
2021/04/14 00:08:06;;;;;;;5.43;2.72;;;;;;;3.14;66.73;101797.69;5062526;28;20131;-84
2021/04/14 00:10:35;;;;;;;6.25;2.67;;;;;;;3.15;66.67;101802.03;5063121;28;20059;-83
2021/04/14 00:13:03;;;;;;;4.40;2.50;;;;;;;3.15;67.07;101798.53;5064154;28;20115;-83
2021/04/14 00:15:43;;;;;;;8.45;2.78;;;;;;;3.14;66.92;101799.44;5072838;28;20087;-83
2021/04/14 00:18:09;;;;;;;6.00;2.92;;;;;;;3.13;67.64;101795.06;5072562;28;20043;-83
2021/04/14 00:20:36;;;;;;;5.18;2.40;;;;;;;3.13;67.95;101801.19;5072086;28;20119;-83
2021/04/14 00:23:06;;;;;;;4.28;2.60;;;;;;;3.10;66.94;101795.03;5083648;28;20041;-84
2021/04/14 00:25:38;;;;;;;6.03;2.78;;;;;;;3.09;66.65;101793.28;5076408;28;20044;-84
2021/04/14 00:28:04;;;;;;;5.22;2.58;;;;;;;3.03;66.81;101783.66;5077542;28;20106;-83
2021/04/14 00:30:31;;;;;;;6.90;2.67;;;;;;;3.00;67.32;101788.84;5087365;28;20180;-84
2021/04/14 00:32:57;;;;;;;4.60;3.03;;;;;;;2.98;67.91;101785.38;5079973;28;20045;-84
2021/04/14 00:35:25;;;;;;;3.72;2.50;;;;;;;2.96;67.76;101781.00;5076992;28;20227;-84
2021/04/14 00:37:54;;;;;;;4.65;2.80;;;;;;;2.92;67.99;101785.34;5090901;28;20036;-84
2021/04/14 00:40:34;;;;;;;6.68;2.38;;;;;;;2.90;67.93;101780.94;5092150;28;20036;-84
2021/04/14 00:43:00;;;;;;;4.90;2.75;;;;;;;2.90;68.15;101783.56;5089778;28;20082;-83
2021/04/14 00:45:28;;;;;;;4.88;2.55;;;;;;;2.89;67.76;101781.81;5096417;28;20066;-83
2021/04/14 00:47:55;;;;;;;6.82;3.00;;;;;;;2.86;68.01;101780.06;5092865;28;20047;-84
2021/04/14 00:50:25;;;;;;;5.05;2.60;;;;;;;2.80;68.04;101780.03;5073853;28;20055;-83
2021/04/14 00:52:52;;;;;;;6.10;2.90;;;;;;;2.79;68.55;101780.91;5084016;28;20104;-83
2021/04/14 00:55:24;;;;;;;11.75;2.92;;;;;;;2.79;68.11;101784.38;5078233;28;20532;-84
2021/04/14 00:57:50;;;;;;;5.20;2.83;;;;;;;2.77;68.50;101782.63;5080168;28;20045;-83
2021/04/14 01:00:37;;;;;;;6.00;3.00;;;;;;;2.69;67.91;101779.94;5089409;28;20081;-85
2021/04/14 01:03:07;;;;;;;4.60;2.80;;;;;;;2.67;68.33;101773.84;5076320;28;20037;-83
2021/04/14 01:05:36;;;;;;;4.88;2.80;;;;;;;2.65;68.62;101770.34;5085677;28;20048;-83
2021/04/14 01:08:05;;;;;;;;;;;;;;;2.72;68.88;101781.69;5084800;28;20117;-83
2021/04/14 01:10:31;;;;;;;6.55;2.72;;;;;;;2.71;69.02;101779.94;5076282;28;20012;-83
2021/04/14 01:13:11;;;;;;;8.18;2.95;;;;;;;2.70;68.64;101778.19;5071753;28;20060;-84
2021/04/14 01:15:43;;;;;;;4.43;2.92;;;;;;;2.69;68.65;101781.66;5079610;28;20040;-84
2021/04/14 01:18:13;;;;;;;7.45;3.85;;;;;;;2.65;69.02;101779.91;5076543;28;20064;-84
2021/04/14 01:20:41;;;;;;;7.50;3.30;;;;;;;2.66;68.81;101773.81;5092976;28;20045;-83
2021/04/14 01:23:08;;;;;;;5.97;2.83;;;;;;;2.66;69.00;101777.31;5096519;28;20048;-83
2021/04/14 01:25:41;;;;;;;3.58;2.67;;;;;;;2.67;68.59;101768.63;5095957;28;20048;-84
2021/04/14 01:28:12;;;;;;;4.97;2.78;;;;;;;2.70;68.24;101779.06;5088238;28;20059;-84
2021/04/14 01:30:39;;;;;;;4.40;2.72;;;;;;;2.68;68.66;101780.78;5069553;28;20136;-84
2021/04/14 01:33:06;;;;;;;5.75;2.75;;;;;;;2.69;68.86;101781.66;5067510;28;20051;-84
2021/04/14 01:35:34;;;;;;;4.63;2.75;;;;;;;2.67;68.31;101778.19;5081906;28;20135;-84
2021/04/14 01:38:04;;;;;;;6.55;2.60;;;;;;;2.69;68.27;101787.78;5071418;28;20692;-83
2021/04/14 01:40:31;;;;;;;5.60;2.67;;;;;;;2.69;68.28;101784.28;5064454;28;20120;-84
2021/04/14 01:42:57;;;;;;;5.45;2.92;;;;;;;2.70;68.74;101789.53;5086290;28;20040;-82
2021/04/14 01:45:31;;;;;;;5.70;2.72;;;;;;;2.72;68.92;101786.94;5079783;28;20051;-84
2021/04/14 01:47:57;;;;;;;4.60;2.75;;;;;;;2.69;68.20;101779.06;5069233;28;20083;-83
2021/04/14 01:50:28;;;;;;;7.93;3.38;;;;;;;2.73;68.77;101786.94;5073470;28;20049;-83
2021/04/14 01:52:55;;;;;;;4.80;2.88;;;;;;;2.72;68.12;101776.47;5074382;28;20072;-83
2021/04/14 01:55:24;;;;;;;5.32;3.30;;;;;;;2.76;68.41;101786.97;5065900;28;20488;-84
2021/04/14 01:57:50;;;;;;;5.00;2.65;;;;;;;2.77;68.35;101793.09;5065167;28;20583;-84
2021/04/14 02:00:22;;;;;;;6.90;2.70;;;;;;;2.78;68.36;101797.44;5074631;28;20241;-83
2021/04/14 02:02:51;;;;;;;5.22;2.60;;;;;;;2.72;68.42;101786.94;5065329;28;20067;-84
2021/04/14 02:05:23;;;;;;;5.00;3.00;;;;;;;2.73;68.61;101783.44;5069214;28;20040;-84
2021/04/14 02:07:51;;;;;;;5.45;2.85;;;;;;;2.75;68.45;101790.44;5086535;28;20036;-84
2021/04/14 02:10:18;;;;;;;5.00;3.15;;;;;;;2.70;68.17;101786.03;5088769;28;20045;-85
2021/04/14 02:12:44;;;;;;;6.80;3.17;;;;;;;2.61;68.43;101784.25;5090763;28;20063;-84
2021/04/14 02:15:15;;;;;;;5.45;3.13;;;;;;;2.56;68.99;101779.84;5090340;28;20080;-84
2021/04/14 02:17:41;;;;;;;10.10;3.53;;;;;;;2.57;69.12;101792.03;5078334;28;20339;-83
2021/04/14 02:20:09;;;;;;;7.65;3.47;;;;;;;2.56;68.91;101782.44;5078484;28;20143;-83
2021/04/14 02:22:37;;;;;;;5.65;3.25;;;;;;;2.56;69.55;101782.44;5068957;28;20131;-84
2021/04/14 02:25:06;;;;;;;8.82;3.20;;;;;;;2.58;69.40;101788.56;5061575;28;20049;-84
2021/04/14 02:27:32;;;;;;;6.82;3.88;;;;;;;2.55;69.51;101784.19;5069740;28;20051;-84
2021/04/14 02:29:59;;;;;;;6.57;3.22;;;;;;;2.56;69.68;101787.69;5069305;28;20060;-83
2021/04/14 02:32:26;;;;;;;5.47;3.33;;;;;;;2.53;69.75;101785.03;5074187;28;20033;-83
2021/04/14 02:34:55;;;;;;;4.97;3.78;;;;;;;2.51;69.52;101778.94;5089357;28;20025;-83
2021/04/14 02:37:21;;;;;;;7.55;3.70;;;;;;;2.48;69.83;101785.00;5084468;28;20033;-83
2021/04/14 02:39:47;;;;;;;5.25;3.10;;;;;;;2.44;69.86;101781.50;5078307;28;20131;-83
2021/04/14 02:42:13;;;;;;;5.72;3.38;;;;;;;2.42;70.39;101775.38;5067881;28;20052;-83
2021/04/14 02:44:40;;;;;;;7.53;3.70;;;;;;;2.42;70.15;101784.94;5072132;28;20135;-83
2021/04/14 02:47:06;;;;;;;4.40;3.42;;;;;;;2.37;70.32;101779.69;5064760;28;20049;-84
2021/04/14 02:49:32;;;;;;;9.55;3.42;;;;;;;2.42;70.08;101785.84;5083502;28;20052;-83
2021/04/14 02:51:59;;;;;;;5.95;3.60;;;;;;;2.43;69.97;101782.34;5079224;28;20169;-83
2021/04/14 02:54:25;;;;;;;5.47;3.53;;;;;;;2.39;69.96;101777.06;5081835;28;20044;-83
2021/04/14 02:56:51;;;;;;;7.90;4.03;;;;;;;2.36;70.43;101775.31;5081124;28;20048;-82
2021/04/14 02:59:19;;;;;;;6.35;3.97;;;;;;;2.33;70.58;101770.09;5091632;28;20403;-84
2021/04/14 03:01:45;;;;;;;6.50;3.58;;;;;;;2.39;70.36;101771.84;5092236;28;20037;-83
2021/04/14 03:04:11;;;;;;;5.47;3.63;;;;;;;2.44;70.35;101780.63;5089424;28;20045;-84
2021/04/14 03:06:38;;;;;;;8.75;3.75;;;;;;;2.49;70.28;101778.06;5082215;28;20044;-84
2021/04/14 03:09:05;;;;;;;7.50;3.90;;;;;;;2.48;69.92;101771.94;5077452;28;20098;-83
2021/04/14 03:11:32;;;;;;;6.63;3.72;;;;;;;2.49;70.09;101773.69;5081437;28;20048;-83
2021/04/14 03:14:00;;;;;;;4.70;3.30;;;;;;;2.46;70.19;101768.44;5092803;28;20074;-84
2021/04/14 03:16:26;;;;;;;7.22;3.90;;;;;;;2.45;69.85;101775.41;5066853;28;20095;-84
2021/04/14 03:18:54;;;;;;;6.55;3.78;;;;;;;2.37;70.08;101769.22;5069959;28;20057;-83
2021/04/14 03:21:21;;;;;;;6.63;3.83;;;;;;;2.36;70.02;101772.69;5069499;28;20073;-83
2021/04/14 03:23:53;;;;;;;7.80;3.50;;;;;;;2.34;70.25;101766.59;5078278;28;20044;-83
2021/04/14 03:26:22;;;;;;;5.13;3.63;;;;;;;2.34;70.06;101766.59;5070171;28;20080;-83
2021/04/14 03:28:51;;;;;;;5.55;3.70;;;;;;;2.32;70.51;101764.84;5074953;28;20041;-83
2021/04/14 03:31:21;;;;;;;6.80;4.30;;;;;;;2.26;70.33;101755.19;5085187;28;20080;-83
2021/04/14 03:33:48;;;;;;;13.80;4.20;;;;;;;2.04;70.58;101735.84;5085090;28;20096;-84
2021/04/14 03:36:16;;;;;;;6.70;3.92;;;;;;;2.21;70.87;101762.09;5085572;28;20080;-83
2021/04/14 03:38:43;;;;;;;6.32;4.13;;;;;;;2.20;70.62;101759.50;5089551;28;20040;-83
2021/04/14 03:41:13;;;;;;;7.97;4.13;;;;;;;2.09;70.77;101762.00;5093612;28;20045;-84
2021/04/14 03:43:39;;;;;;;6.45;4.30;;;;;;;2.10;71.59;101768.97;5097861;28;20036;-83
2021/04/14 03:46:07;;;;;;;6.05;4.40;;;;;;;2.06;71.66;101755.00;5087731;28;20136;-84
2021/04/14 03:48:35;;;;;;;9.85;4.97;;;;;;;2.04;71.95;101753.28;5079589;28;20102;-84
2021/04/14 03:51:02;;;;;;;7.35;4.55;;;;;;;2.07;72.00;101766.34;5084472;28;20044;-83
2021/04/14 03:53:34;;;;;;;9.75;4.38;;;;;;;2.05;71.70;101757.59;5085540;28;20040;-84
2021/04/14 03:56:07;;;;;;;5.25;4.15;;;;;;;2.06;71.56;101751.53;5077029;28;20154;-84
2021/04/14 03:58:38;;;;;;;6.93;4.72;;;;;;;2.05;71.69;101760.22;5077697;28;20653;-84
2021/04/14 04:01:09;;;;;;;5.57;4.47;;;;;;;1.91;71.63;101730.47;5080428;28;20041;-83
2021/04/14 04:03:36;;;;;;;8.15;4.65;;;;;;;2.00;71.89;101756.69;5096014;28;20041;-82
2021/04/14 04:06:03;;;;;;;8.80;4.25;;;;;;;1.94;72.53;101752.28;5088590;28;20052;-84
2021/04/14 04:08:29;;;;;;;7.43;4.43;;;;;;;1.94;72.72;101751.41;5089062;28;20106;-84
2021/04/14 04:10:56;;;;;;;7.63;4.38;;;;;;;1.92;72.23;101750.50;5074293;28;20059;-83
2021/04/14 04:13:27;;;;;;;8.70;4.28;;;;;;;1.88;72.58;101743.53;5080310;28;20080;-84
2021/04/14 04:15:54;;;;;;;9.18;4.68;;;;;;;1.92;72.63;101753.13;5071647;28;20071;-85
2021/04/14 04:18:21;;;;;;;8.48;4.40;;;;;;;1.87;72.59;101754.84;5090068;28;20041;-84
2021/04/14 04:20:47;;;;;;;5.88;4.20;;;;;;;1.84;72.49;101754.81;5089840;28;20055;-83
2021/04/14 04:23:13;;;;;;;6.65;4.60;;;;;;;1.82;73.13;101752.16;5098238;28;20088;-84
2021/04/14 04:25:41;;;;;;;8.55;4.35;;;;;;;1.84;72.42;101760.03;5088164;28;20056;-84
2021/04/14 04:28:07;;;;;;;6.70;4.47;;;;;;;1.80;72.90;101766.94;5064198;28;20501;-84
2021/04/14 04:30:35;;;;;;;5.28;4.30;;;;;;;1.76;72.65;101760.81;5062272;28;20041;-84
2021/04/14 04:33:03;;;;;;;7.97;4.45;;;;;;;1.69;72.36;101765.97;5090928;28;20048;-83
2021/04/14 04:35:32;;;;;;;9.02;4.25;;;;;;;1.66;73.10;101765.91;5078332;28;20041;-83
2021/04/14 04:37:59;;;;;;;8.20;4.45;;;;;;;1.62;73.49;101762.38;5077592;28;20052;-84
2021/04/14 04:40:26;;;;;;;6.82;4.53;;;;;;;1.61;73.75;101762.38;5074675;28;20068;-83
2021/04/14 04:42:54;;;;;;;8.15;4.53;;;;;;;1.65;74.21;101769.38;5073944;28;20052;-85
2021/04/14 04:45:22;;;;;;;6.68;4.30;;;;;;;1.66;73.78;101772.03;5076739;28;20483;-85
2021/04/14 04:47:49;;;;;;;6.47;4.45;;;;;;;1.67;73.87;101775.50;5078094;28;20047;-84
2021/04/14 04:50:18;;;;;;;7.68;4.55;;;;;;;1.68;73.83;101775.53;5081571;28;20041;-84
2021/04/14 04:52:44;;;;;;;7.72;4.50;;;;;;;1.71;74.51;101775.56;5082743;28;20047;-84
2021/04/14 04:55:11;;;;;;;7.57;4.32;;;;;;;1.72;74.07;101774.72;5081182;28;20108;-85
2021/04/14 04:57:39;;;;;;;5.55;4.07;;;;;;;1.77;74.20;101780.84;5076297;28;20479;-85
2021/04/14 05:00:07;;;;;;;8.30;4.38;;;;;;;1.80;73.41;101780.00;5075602;28;20136;-85
2021/04/14 05:02:34;;;;;;;5.47;4.30;;;;;;;1.86;72.97;101790.53;5074335;28;20032;-86
2021/04/14 05:05:02;;;;;;;5.57;4.63;;;;;;;1.90;73.15;101791.41;5078963;28;20039;-85
2021/04/14 05:07:31;;;;;;;6.45;4.70;;;;;;;1.93;72.91;101786.22;5084829;28;20040;-85
2021/04/14 05:10:00;;;;;;;9.82;5.20;;;;;;;1.95;73.24;101784.50;5079452;28;20492;-83
2021/04/14 05:12:27;;;;;;;7.93;4.80;;;;;;;2.01;72.53;101792.41;5072750;28;20044;-84
2021/04/14 05:14:53;;;;;;;7.53;4.82;;;;;;;2.02;72.84;101789.81;5074530;28;20104;-84
2021/04/14 05:17:20;;;;;;;8.57;4.70;;;;;;;2.05;72.41;101794.19;5089449;28;20060;-84
2021/04/14 05:19:46;;;;;;;10.30;5.22;;;;;;;2.07;72.92;101792.47;5092060;28;20074;-83
2021/04/14 05:22:18;;;;;;;8.77;4.80;;;;;;;2.14;72.09;101801.25;5085137;28;20044;-83
2021/04/14 05:24:47;;;;;;;7.07;4.90;;;;;;;2.17;72.14;101796.94;5079837;28;20057;-85
2021/04/14 05:27:15;;;;;;;5.22;4.20;;;;;;;2.18;72.04;101796.09;5090931;28;20116;-83
2021/04/14 05:29:41;;;;;;;12.25;4.55;;;;;;;2.24;72.04;101806.56;5083396;28;20072;-80
2021/04/14 05:32:08;;;;;;;7.68;4.55;;;;;;;2.30;71.11;101806.63;5079731;28;20095;-83
2021/04/14 05:34:35;;;;;;;7.93;4.38;;;;;;;2.29;71.29;101799.66;5095081;28;20082;-85
2021/04/14 05:37:01;;;;;;;7.38;4.43;;;;;;;2.35;71.50;101804.97;5092459;28;20055;-85
2021/04/14 05:39:28;;;;;;;8.27;4.65;;;;;;;2.35;71.12;101791.00;5078454;28;20072;-83
2021/04/14 05:41:54;;;;;;;8.10;4.55;;;;;;;2.43;71.01;101805.00;5081876;28;20052;-84
2021/04/14 05:44:22;;;;;;;7.28;4.38;;;;;;;2.54;73.84;101805.09;5096668;28;20052;-82
2021/04/14 05:46:48;;;;;;;6.40;4.32;;;;;;;2.71;72.20;101811.34;5088124;28;20068;-83
2021/04/14 05:49:16;;;;;;;6.53;4.30;;;;;;;2.76;71.63;101817.50;5094051;28;20119;-82
2021/04/14 05:51:42;;;;;;;7.22;4.20;;;;;;;2.88;71.23;101811.47;5095164;28;20041;-84
2021/04/14 05:54:08;;;;;;;8.10;4.15;;;;;;;2.91;70.32;101806.25;5097975;28;20044;-82
2021/04/14 05:56:34;;;;;;;4.88;3.97;;;;;;;2.96;69.60;101817.63;5091296;28;20028;-84
2021/04/14 05:59:01;;;;;;;7.80;4.15;;;;;;;2.96;69.74;101804.56;5090480;28;20041;-83
2021/04/14 06:01:32;;;;;;;7.10;4.15;;;;;;;3.04;69.54;101816.81;5090744;28;20053;-82
2021/04/14 06:03:58;;;;;;;6.50;3.80;;;;;;;3.13;69.35;101822.13;5092333;28;20037;-83
2021/04/14 06:06:25;;;;;;;5.43;3.80;;;;;;;3.18;68.87;101816.88;5095589;28;20028;-84
2021/04/14 06:08:52;;;;;;;6.80;3.85;;;;;;;3.27;68.95;101816.09;5088272;28;20032;-83
2021/04/14 06:11:18;;;;;;;8.15;5.07;;;;;;;3.37;68.35;101821.38;5087299;28;20033;-82
2021/04/14 06:13:45;;;;;;;10.23;4.07;;;;;;;3.47;67.88;101819.66;5094733;28;20044;-80
2021/04/14 06:16:13;;;;;;;5.38;3.58;;;;;;;3.56;68.06;101819.72;5094210;28;20044;-83
2021/04/14 06:18:43;;;;;;;5.70;4.10;;;;;;;3.68;67.76;101825.00;5088113;28;20044;-84
2021/04/14 06:21:10;;;;;;;7.80;3.38;;;;;;;3.76;66.29;101825.91;5087543;28;20140;-84
2021/04/14 06:23:36;;;;;;;7.30;3.58;;;;;;;3.88;66.33;101825.06;5085316;28;20158;-84
2021/04/14 06:28:36;;;;;;;6.05;3.35;;;;;;;4.22;65.09;101828.66;5082871;28;20044;-83
2021/04/14 06:31:04;;;;;;;7.78;3.38;;;;;;;4.31;65.13;101825.16;5085966;28;20090;-83
2021/04/14 06:33:34;;;;;;;6.15;3.47;;;;;;;4.50;63.75;101826.94;5089034;28;20433;-83
2021/04/14 06:36:00;;;;;;;8.60;3.33;;;;;;;4.71;63.60;101829.59;5093417;28;20044;-82
2021/04/14 06:38:31;;;;;;;5.65;3.40;;;;;;;4.97;62.86;101833.94;5098771;28;20039;-83
2021/04/14 06:44:25;;;;;;;5.32;3.00;;;;;;;7.85;54.74;101835.47;5083664;28;20040;-84
2021/04/14 06:46:52;;;;;;;5.95;2.70;;;;;;;9.70;50.63;101831.50;5085628;28;20052;-83
2021/04/14 06:49:45;;;;;;;5.57;3.00;;;;;;;11.27;45.78;101830.44;5093432;28;20033;-82
2021/04/14 06:52:21;;;;;;;7.45;3.08;;;;;;;12.24;41.84;101828.50;5079675;28;20045;-83
2021/04/14 06:54:58;;;;;;;4.15;2.40;;;;;;;12.99;40.28;101821.59;5084349;28;20083;-84
2021/04/14 06:57:47;;;;;;;5.18;2.33;;;;;;;13.90;38.42;101829.88;5085580;28;20048;-84
2021/04/14 07:00:29;;;;;;;6.35;2.55;;;;;;;14.53;35.94;101831.84;5073883;28;20089;-83
2021/04/14 07:03:03;;;;;;;4.13;2.42;;;;;;;15.02;35.49;101830.69;5075771;28;20122;-84
2021/04/14 07:05:34;;;;;;;4.28;2.50;;;;;;;15.23;34.81;101830.69;5078463;28;20073;-83
2021/04/14 07:08:04;;;;;;;4.07;2.75;;;;;;;14.98;34.08;101822.84;5095830;28;20060;-86
2021/04/14 07:10:39;;;;;;;3.75;2.33;;;;;;;14.75;35.12;101829.19;5080195;28;20033;-84
2021/04/14 07:13:07;;;;;;;6.22;2.50;;;;;;;14.84;35.01;101830.56;5071605;28;20483;-84
2021/04/14 07:15:34;;;;;;;3.95;2.35;;;;;;;14.63;35.61;101837.69;5075539;28;20054;-83
2021/04/14 07:18:18;;;;;;;3.63;2.40;;;;;;;14.95;34.88;101831.00;5076732;28;20922;-84
2021/04/14 07:21:00;;;;;;;5.30;2.00;;;;;;;15.49;34.50;101825.06;5076901;28;20041;-83
2021/04/14 07:23:53;;;;;;;3.92;2.40;;;;;;;15.78;33.52;101826.44;5078122;28;20033;-83
2021/04/14 07:26:24;;;;;;;5.13;2.40;;;;;;;16.04;33.02;101828.78;5078129;28;20060;-82
2021/04/14 07:29:13;;;;;;;4.10;2.65;;;;;;;15.59;33.34;101822.88;5088301;28;20028;-84
2021/04/14 07:31:56;;;;;;;5.05;2.47;;;;;;;15.75;33.68;101822.09;5095881;28;20059;-84
2021/04/14 07:35:00;;;;;;;5.32;2.50;;;;;;;16.14;32.81;101826.53;5086180;28;20049;-85
2021/04/14 07:37:43;;;;;;;7.57;2.65;;;;;;;15.69;32.83;101817.06;5082392;28;20473;-85
2021/04/14 07:40:40;;;;;;;4.45;2.53;;;;;;;15.99;32.71;101819.25;5065462;28;20144;-85
2021/04/14 07:43:20;;;;;;;4.55;2.00;;;;;;;16.11;31.89;101818.66;5063112;28;20058;-84
2021/04/14 07:45:49;;;;;;;4.78;2.30;;;;;;;15.66;32.90;101824.34;5078283;28;20048;-84
2021/04/14 07:48:27;;;;;;;4.00;2.20;;;;;;;15.51;32.89;101817.84;5067830;28;20103;-85
2021/04/14 07:51:01;;;;;;;7.07;2.75;;;;;;;15.39;33.30;101807.72;5080456;28;20075;-84
2021/04/14 07:53:29;;;;;;;4.43;2.20;;;;;;;15.44;33.29;101816.38;5074004;28;20112;-85
2021/04/14 07:56:21;;;;;;;4.32;2.53;;;;;;;15.18;33.42;101822.88;5077354;28;20111;-84
2021/04/14 07:59:12;;;;;;;3.30;1.80;;;;;;;14.97;32.85;101811.31;5086283;28;20108;-83
2021/04/14 08:02:14;;;;;;;4.72;2.17;;;;;;;14.99;33.34;101819.25;5079232;28;20047;-86
2021/04/14 08:04:46;;;;;;;8.18;2.38;;;;;;;15.22;32.44;101812.94;5064477;28;20140;-82
2021/04/14 08:07:18;;;;;;;6.35;2.72;;;;;;;14.85;33.00;101822.50;5085490;28;20051;-83
2021/04/14 08:10:03;;;;;;;5.53;2.00;;;;;;;13.43;34.96;101797.03;5078188;28;20087;-84
2021/04/14 08:12:36;;;;;;;2.97;1.80;;;;;;;13.53;35.01;101819.75;5081900;28;20060;-83
2021/04/14 08:15:26;;;;;;;3.72;1.80;;;;;;;13.64;34.50;101812.22;5080966;28;20149;-83
2021/04/14 08:18:11;;;;;;;3.35;1.70;;;;;;;14.18;34.51;101817.22;5075288;28;20040;-84
2021/04/14 08:21:07;;;;;;;4.15;2.08;;;;;;;13.88;34.92;101813.09;5075255;28;20467;-86
2021/04/14 08:23:34;;;;;;;3.45;1.75;;;;;;;12.83;35.72;101819.50;5063774;28;20048;-83
2021/04/14 08:26:13;;;;;;;3.92;1.70;;;;;;;12.11;37.46;101813.88;5066957;28;20582;-82
2021/04/14 08:28:43;;;;;;;4.85;1.80;;;;;;;12.40;36.26;101812.97;5065029;28;20033;-83
2021/04/14 08:31:18;;;;;;;4.75;1.92;;;;;;;12.08;36.89;101813.97;5073472;28;20049;-84
2021/04/14 08:33:44;;;;;;;4.18;2.10;;;;;;;11.55;38.77;101811.06;5069005;28;20128;-83
2021/04/14 08:36:22;;;;;;;3.53;2.00;;;;;;;10.95;39.69;101808.31;5072860;28;20101;-82
2021/04/14 08:38:48;;;;;;;2.83;1.52;;;;;;;10.59;39.92;101812.75;5080410;28;20120;-83
2021/04/14 08:41:28;;;;;;;4.22;2.30;;;;;;;10.15;41.53;101821.72;5092847;28;20044;-82
2021/04/14 08:44:11;;;;;;;3.22;2.30;;;;;;;10.21;41.77;101811.03;5076412;28;20090;-82
2021/04/14 08:46:39;;;;;;;3.63;2.20;;;;;;;10.23;42.37;101806.53;5086666;28;20056;-83
2021/04/14 08:49:17;;;;;;;3.97;1.70;;;;;;;10.26;41.30;101814.41;5077367;28;20072;-82
2021/04/14 08:51:46;;;;;;;3.35;1.13;;;;;;;10.10;41.11;101803.28;5071766;28;20551;-83
2021/04/14 08:54:16;;;;;;;3.03;1.15;;;;;;;10.11;40.15;101802.38;5072279;28;20040;-83
2021/04/14 08:56:43;;;;;;;6.78;1.40;;;;;;;10.00;40.35;101793.81;5071286;28;20049;-83
2021/04/14 08:59:12;;;;;;;5.88;1.50;;;;;;;9.80;40.59;101804.81;5067737;28;20076;-83
2021/04/14 09:01:40;;;;;;;2.45;1.30;;;;;;;9.71;41.35;101806.81;5080362;28;20103;-83
2021/04/14 09:04:10;;;;;;;2.17;1.45;;;;;;;9.38;42.04;101800.44;5074484;28;20115;-83
2021/04/14 09:06:38;;;;;;;;;;;;;;;9.36;40.81;101805.75;5072765;28;20049;-83
2021/04/14 09:09:08;;;;;;;2.85;1.80;;;;;;;9.40;41.08;101794.22;5077013;28;19991;-83
2021/04/14 09:11:36;;;;;;;5.45;1.40;;;;;;;9.44;42.54;101793.22;5086529;28;20071;-83
2021/04/14 09:14:26;;;;;;;3.13;1.80;;;;;;;9.30;42.50;101789.13;5069127;28;20052;-81
2021/04/14 09:17:16;;;;;;;3.42;1.92;;;;;;;9.36;43.91;101795.16;5069896;28;20072;-83
2021/04/14 09:19:48;;;;;;;4.90;2.08;;;;;;;9.39;43.63;101789.81;5071173;28;20045;-83
2021/04/14 09:22:21;;;;;;;5.82;2.33;;;;;;;9.43;43.60;101790.63;5066377;28;20117;-82
2021/04/14 09:25:08;;;;;;;4.13;2.50;;;;;;;9.43;43.29;101780.94;5075241;28;20440;-83
2021/04/14 09:27:36;;;;;;;6.13;2.75;;;;;;;9.42;43.49;101783.59;5071738;28;20127;-82
2021/04/14 09:30:18;;;;;;;4.32;2.45;;;;;;;9.31;44.08;101783.81;5080891;28;20056;-82
2021/04/14 09:32:56;;;;;;;6.15;2.70;;;;;;;8.84;44.48;101783.81;5082936;28;20048;-84
2021/04/14 09:35:29;;;;;;;6.07;2.47;;;;;;;8.73;44.56;101779.59;5083588;28;20047;-83
2021/04/14 09:38:13;;;;;;;4.03;2.60;;;;;;;8.72;43.59;101775.22;5093149;28;20526;-83
2021/04/14 09:40:40;;;;;;;4.50;2.80;;;;;;;8.76;42.63;101776.03;5087585;28;20079;-82
2021/04/14 09:43:26;;;;;;;6.68;2.92;;;;;;;8.88;43.54;101773.19;5078063;28;20036;-82
2021/04/14 09:45:58;;;;;;;4.55;2.65;;;;;;;8.91;43.30;101770.50;5075196;28;20075;-83
2021/04/14 09:48:37;;;;;;;6.00;2.70;;;;;;;8.61;42.06;101763.97;5069493;28;20088;-82
2021/04/14 09:51:27;;;;;;;6.03;2.78;;;;;;;8.57;42.13;101756.13;5079091;28;20055;-82
2021/04/14 09:53:58;;;;;;;4.22;2.70;;;;;;;8.79;42.30;101762.78;5061792;28;20076;-83
2021/04/14 09:56:30;;;;;;;4.57;2.80;;;;;;;8.97;42.74;101748.38;5084385;28;20147;-83
2021/04/14 09:59:02;;;;;;;7.10;2.80;;;;;;;9.26;41.29;101751.31;5077806;28;20048;-83
2021/04/14 10:01:34;;;;;;;4.25;2.70;;;;;;;9.43;41.23;101750.97;5087506;28;20033;-82
2021/04/14 10:04:19;;;;;;;3.75;2.35;;;;;;;9.41;40.32;101750.13;5079331;28;20421;-83
2021/04/14 10:06:47;;;;;;;8.00;2.50;;;;;;;9.59;39.35;101748.88;5088318;28;20044;-83
2021/04/14 10:09:25;;;;;;;4.47;2.42;;;;;;;9.36;39.26;101739.66;5085449;28;20044;-84
2021/04/14 10:11:53;;;;;;;6.47;2.58;;;;;;;9.20;37.50;101738.22;5096049;28;20091;-84
2021/04/14 10:14:24;;;;;;;3.97;2.75;;;;;;;9.20;37.90;101738.22;5083159;28;20393;-83
2021/04/14 10:17:03;;;;;;;4.25;2.47;;;;;;;8.97;37.91;101732.53;5098731;28;20040;-85
2021/04/14 10:19:39;;;;;;;4.45;2.13;;;;;;;8.75;39.52;101727.63;5096423;28;20041;-83
2021/04/14 10:22:15;;;;;;;4.75;2.30;;;;;;;8.62;39.60;101723.47;5092637;28;20032;-84
2021/04/14 10:24:44;;;;;;;4.47;2.35;;;;;;;8.66;39.93;101719.84;5082122;28;20064;-83
2021/04/14 10:27:19;;;;;;;3.22;2.50;;;;;;;8.99;40.74;101715.72;5097119;28;20037;-84
2021/04/14 10:29:46;;;;;;;4.40;2.53;;;;;;;9.31;40.27;101712.44;5100656;28;20070;-83
2021/04/14 10:32:19;;;;;;;4.20;2.45;;;;;;;9.39;38.74;101713.16;5098644;28;20063;-84
2021/04/14 10:34:51;;;;;;;4.15;2.35;;;;;;;9.23;38.96;101706.44;5096117;28;20051;-83
2021/04/14 10:37:21;;;;;;;;;;;;;;;9.12;39.69;101700.50;5100384;28;20048;-83
2021/04/14 10:39:50;;;;;;;4.38;2.35;;;;;;;8.95;39.24;101703.50;5094128;28;19909;-83
2021/04/14 10:42:19;;;;;;;4.95;2.47;;;;;;;8.90;37.72;101693.91;5091054;28;20055;-85
2021/04/14 10:44:49;;;;;;;3.42;1.90;;;;;;;9.03;35.52;101695.41;5092830;28;20045;-85
2021/04/14 10:47:33;;;;;;;4.35;2.10;;;;;;;9.05;34.53;101690.97;5093291;28;20045;-85
2021/04/14 10:50:19;;;;;;;4.97;2.20;;;;;;;8.88;35.39;101686.00;5090528;28;20149;-84
2021/04/14 10:53:10;;;;;;;2.35;2.08;;;;;;;9.27;35.27;101689.63;5095221;28;20086;-87
2021/04/14 10:55:52;;;;;;;4.57;2.33;;;;;;;9.41;36.02;101679.63;5077415;28;20053;-83
2021/04/14 10:58:22;;;;;;;2.58;2.38;;;;;;;9.60;35.33;101671.28;5089615;28;20044;-84
2021/04/14 11:00:53;;;;;;;3.67;2.15;;;;;;;9.92;35.73;101679.31;5091407;28;20032;-84
2021/04/14 11:03:24;;;;;;;4.63;2.63;;;;;;;10.35;34.22;101660.66;5084318;28;20051;-84
2021/04/14 11:05:57;;;;;;;3.10;2.40;;;;;;;10.69;33.67;101660.63;5090753;28;20045;-85
2021/04/14 11:08:28;;;;;;;5.05;2.30;;;;;;;10.61;35.68;101646.72;5098406;28;20062;-85
2021/04/14 11:10:58;;;;;;;4.60;2.30;;;;;;;10.19;36.49;101654.88;5085691;28;20068;-85
2021/04/14 11:13:28;;;;;;;4.20;2.67;;;;;;;10.27;35.72;101653.78;5082782;28;20151;-85
2021/04/14 11:15:55;;;;;;;5.50;2.88;;;;;;;10.36;35.94;101654.44;5089373;28;20060;-85
2021/04/14 11:18:34;;;;;;;5.05;2.38;;;;;;;10.33;35.12;101653.66;5081513;28;20048;-84
2021/04/14 11:21:11;;;;;;;3.25;2.10;;;;;;;10.25;34.71;101650.31;5086059;28;21284;-85
2021/04/14 11:23:39;;;;;;;4.20;2.47;;;;;;;10.09;35.15;101642.72;5078273;28;20052;-84
2021/04/14 11:26:15;;;;;;;4.60;2.00;;;;;;;10.05;34.88;101635.81;5082243;28;20123;-84
2021/04/14 11:28:52;;;;;;;3.28;2.00;;;;;;;10.23;33.72;101636.28;5085906;28;20105;-84
2021/04/14 11:31:33;;;;;;;2.67;1.75;;;;;;;10.31;33.31;101629.00;5088185;28;20052;-84
2021/04/14 11:34:11;;;;;;;4.07;2.10;;;;;;;10.26;32.78;101628.22;5088886;28;20086;-84
2021/04/14 11:36:54;;;;;;;4.28;2.40;;;;;;;9.81;33.02;101634.59;5079485;28;20056;-84
2021/04/14 11:39:20;;;;;;;3.78;2.05;;;;;;;9.91;33.05;101629.13;5076957;28;20068;-84
2021/04/14 11:42:01;;;;;;;4.03;2.38;;;;;;;10.31;32.53;101629.00;5080959;28;20052;-83
2021/04/14 11:44:53;;;;;;;3.25;2.03;;;;;;;10.66;30.77;101630.69;5074925;28;20052;-83
2021/04/14 11:47:34;;;;;;;4.55;2.20;;;;;;;10.86;31.15;101626.56;5074939;28;20052;-84
2021/04/14 11:50:44;;;;;;;3.40;2.08;;;;;;;11.11;31.17;101636.47;5072483;28;20055;-84
2021/04/14 11:53:27;;;;;;;2.50;2.17;;;;;;;11.11;30.62;101633.81;5063049;28;20044;-84
2021/04/14 11:55:54;;;;;;;5.38;2.63;;;;;;;11.01;30.75;101630.56;5069682;28;20045;-84
2021/04/14 11:58:40;;;;;;;5.00;2.30;;;;;;;10.96;31.99;101632.47;5073007;28;20037;-84